createdAt,value
2022-11-20T00:01:47.005Z,2.11
2022-11-20T00:06:49.794Z,2.12
2022-11-20T00:11:53.864Z,2.12
2022-11-20T00:16:56.628Z,2.13
2022-11-20T00:21:59.396Z,2.11
2022-11-20T00:27:03.455Z,2.10
2022-11-20T00:32:06.484Z,2.10
2022-11-20T00:37:09.199Z,2.04
2022-11-20T00:42:13.264Z,1.99
2022-11-20T00:47:16.116Z,1.91
2022-11-20T00:52:18.888Z,1.91
2022-11-20T00:57:22.963Z,1.94
2022-11-20T01:02:25.692Z,2.01
2022-11-20T01:07:28.437Z,2.05
2022-11-20T01:12:32.529Z,2.07
2022-11-20T01:17:35.305Z,2.05
2022-11-20T01:22:38.038Z,2.03
2022-11-20T01:27:42.096Z,2.01
2022-11-20T01:32:45.058Z,2.01
2022-11-20T01:37:47.792Z,2.03
2022-11-20T01:43:20.370Z,2.01
2022-11-20T01:48:25.894Z,2.00
2022-11-20T01:53:34.179Z,1.97
2022-11-20T01:58:44.403Z,1.94
2022-11-20T02:03:49.541Z,1.95
2022-11-20T02:08:54.020Z,1.95
2022-11-20T02:13:58.094Z,1.95
2022-11-20T02:19:02.716Z,1.96
2022-11-20T02:24:10.206Z,1.96
2022-11-20T02:29:12.959Z,1.96
2022-11-20T02:34:15.688Z,1.95
2022-11-20T02:39:22.639Z,1.95
2022-11-20T02:44:25.659Z,1.95
2022-11-20T02:49:28.372Z,1.99
2022-11-20T02:54:32.461Z,1.97
2022-11-20T02:59:35.158Z,1.97
2022-11-20T03:04:37.887Z,1.97
2022-11-20T03:09:41.979Z,1.95
2022-11-20T03:14:47.763Z,1.94
2022-11-20T03:19:53.048Z,1.94
2022-11-20T03:24:57.099Z,1.98
2022-11-20T03:29:59.805Z,2.00
2022-11-20T03:35:02.879Z,1.95
2022-11-20T03:40:08.866Z,1.97
2022-11-20T03:45:11.848Z,1.92
2022-11-20T03:50:15.808Z,1.90
2022-11-20T03:55:19.932Z,1.88
2022-11-20T04:00:22.739Z,1.87
2022-11-20T04:05:25.503Z,1.86
2022-11-20T04:10:29.547Z,1.88
2022-11-20T04:15:38.136Z,1.94
2022-11-20T04:20:41.127Z,1.92
2022-11-20T04:25:45.284Z,1.91
2022-11-20T04:30:48.435Z,1.88
2022-11-20T04:35:51.152Z,1.85
2022-11-20T04:40:58.467Z,1.83
2022-11-20T04:46:02.280Z,1.84
2022-11-20T04:51:05.924Z,1.84
2022-11-20T04:56:11.956Z,1.82
2022-11-20T05:01:17.080Z,1.78
2022-11-20T05:06:22.920Z,1.74
2022-11-20T05:11:29.971Z,1.76
2022-11-20T05:16:32.859Z,1.77
2022-11-20T05:21:35.594Z,1.74
2022-11-20T05:26:39.944Z,1.66
2022-11-20T05:31:43.015Z,1.71
2022-11-20T05:36:45.765Z,1.72
2022-11-20T05:42:10.619Z,1.72
2022-11-20T05:47:13.339Z,1.73
2022-11-20T05:52:16.174Z,1.76
2022-11-20T05:57:20.223Z,1.75
2022-11-20T06:02:22.988Z,1.72
2022-11-20T06:07:26.227Z,1.73
2022-11-20T06:12:30.527Z,1.75
2022-11-20T06:17:33.291Z,1.77
2022-11-20T06:22:36.010Z,1.81
2022-11-20T06:27:40.103Z,1.78
2022-11-20T06:32:42.975Z,1.80
2022-11-20T06:37:45.701Z,1.77
2022-11-20T06:42:49.821Z,1.80
2022-11-20T06:47:52.770Z,1.82
2022-11-20T06:52:55.537Z,1.78
2022-11-20T06:57:59.846Z,1.73
2022-11-20T07:03:05.187Z,1.72
2022-11-20T07:08:08.383Z,1.71
2022-11-20T07:13:12.803Z,1.73
2022-11-20T07:18:15.523Z,1.78
2022-11-20T07:23:18.249Z,1.83
2022-11-20T07:28:22.434Z,1.88
2022-11-20T07:33:25.574Z,1.93
2022-11-20T07:38:28.324Z,1.98
2022-11-20T07:43:35.921Z,2.04
2022-11-20T07:48:42.816Z,2.05
2022-11-20T07:53:45.528Z,2.04
2022-11-20T07:58:49.609Z,2.03
2022-11-20T08:03:52.485Z,2.04
2022-11-20T08:08:55.229Z,2.06
2022-11-20T08:14:14.651Z,2.11
2022-11-20T08:19:20.153Z,2.17
2022-11-20T08:24:23.269Z,2.17
2022-11-20T08:29:28.114Z,2.16
2022-11-20T08:34:30.868Z,2.19
2022-11-20T08:39:33.596Z,2.20
2022-11-20T08:44:37.655Z,2.25
2022-11-20T08:49:40.382Z,2.32
2022-11-20T08:54:43.090Z,2.36
2022-11-20T09:05:10.106Z,2.48
2022-11-20T09:10:28.399Z,2.49
2022-11-20T09:15:32.556Z,2.48
2022-11-20T09:20:35.309Z,2.53
2022-11-20T09:25:38.100Z,2.54
2022-11-20T09:30:42.274Z,2.55
2022-11-20T09:35:45.610Z,2.58
2022-11-20T09:40:56.337Z,2.57
2022-11-20T09:46:10.641Z,2.56
2022-11-20T09:51:25.610Z,2.58
2022-11-20T09:56:30.239Z,2.56
2022-11-20T10:01:39.296Z,2.56
2022-11-20T10:06:59.506Z,2.60
2022-11-20T10:12:19.311Z,2.59
2022-11-20T10:17:36.042Z,2.57
2022-11-20T10:22:55.964Z,2.55
2022-11-20T10:28:17.869Z,2.60
2022-11-20T10:33:24.889Z,2.67
2022-11-20T10:38:35.977Z,2.71
2022-11-20T10:43:38.726Z,2.77
2022-11-20T10:48:46.105Z,2.79
2022-11-20T10:53:58.701Z,2.85
2022-11-20T10:59:44.137Z,2.89
2022-11-20T11:04:51.364Z,2.90
2022-11-20T11:09:55.870Z,2.87
2022-11-20T11:14:59.922Z,2.87
2022-11-20T11:20:07.723Z,2.90
2022-11-20T11:25:20.626Z,2.95
2022-11-20T11:30:25.241Z,3.03
2022-11-20T11:35:30.570Z,3.04
2022-11-20T11:40:34.713Z,3.05
2022-11-20T11:45:38.449Z,3.03
2022-11-20T11:50:50.997Z,2.99
2022-11-20T11:56:00.132Z,3.00
2022-11-20T12:01:09.934Z,3.14
2022-11-20T12:06:16.899Z,3.27
2022-11-20T12:11:26.240Z,3.32
2022-11-20T12:16:29.321Z,3.40
2022-11-20T12:21:46.253Z,3.46
2022-11-20T12:27:03.912Z,3.40
2022-11-20T12:32:33.553Z,3.33
2022-11-20T12:37:49.919Z,3.30
2022-11-20T12:43:21.111Z,3.33
2022-11-20T12:48:46.405Z,3.39
2022-11-20T12:54:08.326Z,3.47
2022-11-20T12:59:30.037Z,3.49
2022-11-20T13:04:46.771Z,3.49
2022-11-20T13:09:52.569Z,3.43
2022-11-20T13:15:04.832Z,3.41
2022-11-20T13:20:14.281Z,3.41
2022-11-20T13:25:29.538Z,3.47
2022-11-20T13:30:33.544Z,3.46
2022-11-20T13:35:38.340Z,3.48
2022-11-20T13:40:53.658Z,3.48
2022-11-20T13:45:58.633Z,3.42
2022-11-20T13:51:11.820Z,3.38
2022-11-20T13:56:26.095Z,3.38
2022-11-20T14:01:33.521Z,3.35
2022-11-20T14:06:42.656Z,3.32
2022-11-20T14:11:49.786Z,3.18
2022-11-20T14:16:53.302Z,3.15
2022-11-20T14:22:08.548Z,2.99
2022-11-20T14:27:18.477Z,2.82
2022-11-20T14:32:30.612Z,2.58
2022-11-20T14:37:38.325Z,2.54
2022-11-20T14:42:46.122Z,2.63
2022-11-20T14:47:50.119Z,2.59
2022-11-20T14:52:54.292Z,2.41
2022-11-20T14:58:00.157Z,2.16
2022-11-20T15:03:03.333Z,2.08
2022-11-20T15:08:08.824Z,2.14
2022-11-20T15:13:18.136Z,2.16
2022-11-20T15:18:23.425Z,2.14
2022-11-20T15:23:28.325Z,2.11
2022-11-20T15:28:35.400Z,2.15
2022-11-20T15:33:38.152Z,2.18
2022-11-20T15:38:40.944Z,2.21
2022-11-20T15:43:45.060Z,2.23
2022-11-20T15:48:52.819Z,2.25
2022-11-20T15:53:57.246Z,2.26
2022-11-20T16:04:14.027Z,2.25
2022-11-20T16:09:16.751Z,2.10
2022-11-20T16:14:36.943Z,2.04
2022-11-20T16:19:41.044Z,1.99
2022-11-20T16:24:43.800Z,1.90
2022-11-20T16:29:46.565Z,1.80
2022-11-20T16:34:51.862Z,1.70
2022-11-20T16:39:54.808Z,1.58
2022-11-20T16:44:57.612Z,1.52
2022-11-20T16:50:01.809Z,1.38
2022-11-20T16:55:05.250Z,1.27
2022-11-20T17:00:09.269Z,1.21
2022-11-20T17:05:13.343Z,1.16
2022-11-20T17:10:16.282Z,1.10
2022-11-20T17:15:19.281Z,1.03
2022-11-20T17:20:23.513Z,0.95
2022-11-20T17:25:26.248Z,0.88
2022-11-20T17:30:28.970Z,0.81
2022-11-20T17:35:33.162Z,0.62
2022-11-20T17:40:35.916Z,0.58
2022-11-20T17:45:38.854Z,0.53
2022-11-20T17:50:43.017Z,0.47
2022-11-20T17:56:03.283Z,0.45
2022-11-20T18:01:06.808Z,0.31
2022-11-20T18:06:12.599Z,0.27
2022-11-20T18:11:16.995Z,0.22
2022-11-20T18:16:19.743Z,0.25
2022-11-20T18:21:24.556Z,0.20
2022-11-20T18:26:27.659Z,0.22
2022-11-20T18:31:30.421Z,0.28
2022-11-20T18:36:34.631Z,0.30
2022-11-20T18:41:55.197Z,0.30
2022-11-20T18:46:58.066Z,0.25
2022-11-20T18:52:02.133Z,0.25
2022-11-20T18:57:05.269Z,0.27
2022-11-20T19:02:10.806Z,0.24
2022-11-20T19:07:15.829Z,0.18
2022-11-20T19:12:19.110Z,0.15
2022-11-20T19:17:21.861Z,0.15
2022-11-20T19:22:26.004Z,0.17
2022-11-20T19:27:28.961Z,0.23
2022-11-20T19:32:32.484Z,0.19
2022-11-20T19:37:37.058Z,0.18
2022-11-20T19:42:40.270Z,0.21
2022-11-20T19:48:06.638Z,0.30
2022-11-20T19:53:07.464Z,0.34
2022-11-20T19:58:10.297Z,0.37
2022-11-20T20:03:13.154Z,0.39
2022-11-20T20:08:17.309Z,0.43
2022-11-20T20:13:20.075Z,0.48
2022-11-20T20:18:22.796Z,0.49
2022-11-20T20:23:26.859Z,0.47
2022-11-20T20:28:30.027Z,0.48
2022-11-20T20:33:32.843Z,0.49
2022-11-20T20:38:37.498Z,0.49
2022-11-20T20:43:54.129Z,0.50
2022-11-20T20:48:56.898Z,0.51
2022-11-20T20:54:00.990Z,0.49
2022-11-20T20:59:04.371Z,0.45
2022-11-20T21:04:07.093Z,0.44
2022-11-20T21:09:11.376Z,0.41
2022-11-20T21:14:14.126Z,0.40
2022-11-20T21:19:16.913Z,0.39
2022-11-20T21:24:21.289Z,0.33
2022-11-20T21:29:25.520Z,0.32
2022-11-20T21:34:28.896Z,0.30
2022-11-20T21:39:32.965Z,0.29
2022-11-20T21:44:35.664Z,0.29
2022-11-20T21:49:39.834Z,0.28
2022-11-20T21:54:43.907Z,0.24
2022-11-20T21:59:46.642Z,0.19
2022-11-20T22:04:50.052Z,0.14
2022-11-20T22:09:54.103Z,0.08
2022-11-20T22:14:56.817Z,0.08
2022-11-20T22:19:59.548Z,0.09
2022-11-20T22:25:03.665Z,0.07
2022-11-20T22:30:07.468Z,0.07
2022-11-20T22:35:10.590Z,-0.02
2022-11-20T22:40:15.004Z,-0.02
2022-11-20T22:45:18.049Z,0.02
2022-11-20T22:50:20.787Z,0.10
2022-11-20T22:55:24.884Z,0.14
2022-11-20T23:00:27.580Z,0.18
2022-11-20T23:05:33.000Z,0.20
2022-11-20T23:10:37.063Z,0.26
2022-11-20T23:15:39.785Z,0.28
2022-11-20T23:20:42.508Z,0.32
2022-11-20T23:25:46.655Z,0.36
2022-11-20T23:30:49.387Z,0.41
2022-11-20T23:35:52.280Z,0.43
2022-11-20T23:40:56.364Z,0.47
2022-11-20T23:46:00.673Z,0.51
2022-11-20T23:51:04.133Z,0.53
2022-11-20T23:56:09.127Z,0.53
